Aboyne, United Kingdom
Current Conditions -  °F | °C
As of 11:20 PM on Friday 19 Dec 2014 (Local Time) from EGPD Reporting Station
Few Clouds Few Clouds  
Wind Chill: 32°   Ceiling: Unl
Heat Index: 39°   Visibility: 6mi
Dew Point: 36°   Wind: 12mph
Humidity: 87%   Direction: 260°W
Pressure: 29.59"   Gusts: NA
Location:  57.08°N, 2.78°W
Report Text: EGPD 192320Z AUTO 26010KT 9999 FEW016/// 04/02 Q1002
Loading
Personal Weather Stations






























Interactive Weather Map New forecast layout! Learn more

10-Day Weather Forecast

Advertisements
Track Severe Weather on mobile